sensor_id;sensor_type;location;lat;lon;timestamp;pressure;altitude;pressure_sealevel;temperature;humidity
26436;BME280;15351;52.408;16.826;2023-05-27T00:00:26;101935.76;;;13.30;59.81
26436;BME280;15351;52.408;16.826;2023-05-27T00:03:27;101940.73;;;13.23;59.60
26436;BME280;15351;52.408;16.826;2023-05-27T00:06:30;101937.59;;;13.12;59.94
26436;BME280;15351;52.408;16.826;2023-05-27T00:09:34;101931.64;;;13.02;60.06
26436;BME280;15351;52.408;16.826;2023-05-27T00:12:23;101933.54;;;12.98;60.13
26436;BME280;15351;52.408;16.826;2023-05-27T00:15:17;101933.65;;;12.92;60.17
26436;BME280;15351;52.408;16.826;2023-05-27T00:18:23;101927.73;;;12.82;60.21
26436;BME280;15351;52.408;16.826;2023-05-27T00:21:02;101940.63;;;12.77;60.41
26436;BME280;15351;52.408;16.826;2023-05-27T00:23:29;101942.54;;;12.70;60.59
26436;BME280;15351;52.408;16.826;2023-05-27T00:25:56;101941.50;;;12.64;60.69
26436;BME280;15351;52.408;16.826;2023-05-27T00:28:25;101942.08;;;12.62;60.93
26436;BME280;15351;52.408;16.826;2023-05-27T00:31:03;101942.51;;;12.57;61.01
26436;BME280;15351;52.408;16.826;2023-05-27T00:36:14;101942.06;;;12.50;60.99
26436;BME280;15351;52.408;16.826;2023-05-27T00:38:40;101939.68;;;12.45;61.10
26436;BME280;15351;52.408;16.826;2023-05-27T00:41:07;101943.51;;;12.40;61.15
26436;BME280;15351;52.408;16.826;2023-05-27T00:43:38;101941.20;;;12.36;61.32
26436;BME280;15351;52.408;16.826;2023-05-27T00:46:08;101941.45;;;12.33;61.62
26436;BME280;15351;52.408;16.826;2023-05-27T00:48:39;101940.29;;;12.32;61.51
26436;BME280;15351;52.408;16.826;2023-05-27T00:51:14;101940.66;;;12.27;61.63
26436;BME280;15351;52.408;16.826;2023-05-27T00:53:46;101944.63;;;12.21;61.62
26436;BME280;15351;52.408;16.826;2023-05-27T00:56:23;101947.67;;;12.18;61.74
26436;BME280;15351;52.408;16.826;2023-05-27T00:59:09;101949.95;;;12.17;61.95
26436;BME280;15351;52.408;16.826;2023-05-27T01:01:40;101949.73;;;12.15;62.24
26436;BME280;15351;52.408;16.826;2023-05-27T01:04:09;101946.90;;;12.13;62.30
26436;BME280;15351;52.408;16.826;2023-05-27T01:06:58;101953.52;;;12.12;62.65
26436;BME280;15351;52.408;16.826;2023-05-27T01:10:10;101951.14;;;12.09;62.43
26436;BME280;15351;52.408;16.826;2023-05-27T01:13:06;101957.13;;;12.07;62.66
26436;BME280;15351;52.408;16.826;2023-05-27T01:15:31;101955.70;;;12.07;62.78
26436;BME280;15351;52.408;16.826;2023-05-27T01:18:08;101960.04;;;12.05;62.77
26436;BME280;15351;52.408;16.826;2023-05-27T01:20:38;101958.75;;;12.01;62.88
26436;BME280;15351;52.408;16.826;2023-05-27T01:23:15;101955.98;;;11.96;62.81
26436;BME280;15351;52.408;16.826;2023-05-27T01:25:44;101958.29;;;11.93;62.96
26436;BME280;15351;52.408;16.826;2023-05-27T01:28:11;101957.95;;;11.93;63.13
26436;BME280;15351;52.408;16.826;2023-05-27T01:30:40;101954.31;;;11.90;63.38
26436;BME280;15351;52.408;16.826;2023-05-27T01:33:20;101958.92;;;11.89;63.36
26436;BME280;15351;52.408;16.826;2023-05-27T01:36:14;101956.77;;;11.89;63.31
26436;BME280;15351;52.408;16.826;2023-05-27T01:38:45;101957.60;;;11.88;63.41
26436;BME280;15351;52.408;16.826;2023-05-27T01:41:17;101954.08;;;11.87;63.84
26436;BME280;15351;52.408;16.826;2023-05-27T01:43:51;101951.52;;;11.89;63.87
26436;BME280;15351;52.408;16.826;2023-05-27T01:46:21;101947.62;;;11.92;63.76
26436;BME280;15351;52.408;16.826;2023-05-27T01:48:48;101953.34;;;11.92;63.81
26436;BME280;15351;52.408;16.826;2023-05-27T01:51:16;101948.02;;;11.90;63.84
26436;BME280;15351;52.408;16.826;2023-05-27T01:53:43;101950.77;;;11.93;64.25
26436;BME280;15351;52.408;16.826;2023-05-27T01:56:14;101947.27;;;11.92;64.25
26436;BME280;15351;52.408;16.826;2023-05-27T01:58:47;101945.28;;;11.92;64.51
26436;BME280;15351;52.408;16.826;2023-05-27T02:01:19;101945.65;;;11.94;64.37
26436;BME280;15351;52.408;16.826;2023-05-27T02:03:45;101944.39;;;11.93;64.38
26436;BME280;15351;52.408;16.826;2023-05-27T02:06:14;101943.14;;;11.93;64.41
26436;BME280;15351;52.408;16.826;2023-05-27T02:08:46;101941.42;;;11.94;64.51
26436;BME280;15351;52.408;16.826;2023-05-27T02:11:13;101940.52;;;11.94;64.64
26436;BME280;15351;52.408;16.826;2023-05-27T02:13:51;101943.48;;;11.96;64.61
26436;BME280;15351;52.408;16.826;2023-05-27T02:16:22;101942.56;;;11.96;64.70
26436;BME280;15351;52.408;16.826;2023-05-27T02:18:50;101943.52;;;11.99;64.92
26436;BME280;15351;52.408;16.826;2023-05-27T02:21:19;101942.59;;;11.99;64.97
26436;BME280;15351;52.408;16.826;2023-05-27T02:23:46;101939.24;;;11.98;64.99
26436;BME280;15351;52.408;16.826;2023-05-27T02:26:12;101940.18;;;11.98;65.06
26436;BME280;15351;52.408;16.826;2023-05-27T02:28:47;101937.98;;;11.94;64.79
26436;BME280;15351;52.408;16.826;2023-05-27T02:31:13;101938.05;;;11.94;64.92
26436;BME280;15351;52.408;16.826;2023-05-27T02:33:49;101940.62;;;11.97;65.30
26436;BME280;15351;52.408;16.826;2023-05-27T02:36:18;101941.75;;;11.98;65.14
26436;BME280;15351;52.408;16.826;2023-05-27T02:38:51;101940.39;;;12.01;64.98
26436;BME280;15351;52.408;16.826;2023-05-27T02:41:17;101946.42;;;12.02;64.98
26436;BME280;15351;52.408;16.826;2023-05-27T02:43:45;101945.72;;;12.02;65.05
26436;BME280;15351;52.408;16.826;2023-05-27T02:46:11;101947.26;;;12.04;65.06
26436;BME280;15351;52.408;16.826;2023-05-27T02:48:38;101949.58;;;12.05;65.10
26436;BME280;15351;52.408;16.826;2023-05-27T02:51:04;101957.35;;;12.05;65.17
26436;BME280;15351;52.408;16.826;2023-05-27T02:53:31;101950.48;;;12.05;64.81
26436;BME280;15351;52.408;16.826;2023-05-27T02:55:57;101947.46;;;11.99;64.80
26436;BME280;15351;52.408;16.826;2023-05-27T02:58:27;101954.73;;;11.98;65.05
26436;BME280;15351;52.408;16.826;2023-05-27T03:00:58;101955.61;;;11.98;65.29
26436;BME280;15351;52.408;16.826;2023-05-27T03:03:39;101952.81;;;11.99;65.34
26436;BME280;15351;52.408;16.826;2023-05-27T03:06:07;101958.88;;;12.00;65.23
26436;BME280;15351;52.408;16.826;2023-05-27T03:08:36;101959.23;;;11.98;65.03
26436;BME280;15351;52.408;16.826;2023-05-27T03:11:03;101958.85;;;11.95;65.04
26436;BME280;15351;52.408;16.826;2023-05-27T03:13:40;101961.58;;;11.95;65.19
26436;BME280;15351;52.408;16.826;2023-05-27T03:16:06;101963.68;;;11.95;65.47
26436;BME280;15351;52.408;16.826;2023-05-27T03:18:33;101964.02;;;11.95;65.26
26436;BME280;15351;52.408;16.826;2023-05-27T03:21:05;101967.65;;;11.93;65.47
26436;BME280;15351;52.408;16.826;2023-05-27T03:23:37;101968.48;;;11.92;65.38
26436;BME280;15351;52.408;16.826;2023-05-27T03:26:03;101966.02;;;11.93;65.51
26436;BME280;15351;52.408;16.826;2023-05-27T03:28:33;101967.23;;;11.96;65.60
26436;BME280;15351;52.408;16.826;2023-05-27T03:31:03;101967.66;;;11.97;65.60
26436;BME280;15351;52.408;16.826;2023-05-27T03:33:47;101966.26;;;11.98;65.60
26436;BME280;15351;52.408;16.826;2023-05-27T03:36:20;101969.52;;;11.96;65.46
26436;BME280;15351;52.408;16.826;2023-05-27T03:38:49;101975.02;;;11.95;65.63
26436;BME280;15351;52.408;16.826;2023-05-27T03:41:32;101970.10;;;11.98;65.95
26436;BME280;15351;52.408;16.826;2023-05-27T03:44:18;101972.89;;;12.01;65.67
26436;BME280;15351;52.408;16.826;2023-05-27T03:46:52;101970.77;;;12.02;65.78
26436;BME280;15351;52.408;16.826;2023-05-27T03:49:30;101973.59;;;12.01;65.84
26436;BME280;15351;52.408;16.826;2023-05-27T03:52:15;101977.18;;;12.01;65.82
26436;BME280;15351;52.408;16.826;2023-05-27T03:55:22;101981.08;;;12.05;66.20
26436;BME280;15351;52.408;16.826;2023-05-27T03:58:08;101986.09;;;12.11;66.09
26436;BME280;15351;52.408;16.826;2023-05-27T04:00:51;101988.09;;;12.13;66.03
26436;BME280;15351;52.408;16.826;2023-05-27T04:03:19;101989.98;;;12.13;65.92
26436;BME280;15351;52.408;16.826;2023-05-27T04:05:45;101993.96;;;12.15;66.09
26436;BME280;15351;52.408;16.826;2023-05-27T04:08:22;101999.48;;;12.18;66.28
26436;BME280;15351;52.408;16.826;2023-05-27T04:11:14;102004.27;;;12.18;66.09
26436;BME280;15351;52.408;16.826;2023-05-27T04:14:01;102006.70;;;12.17;66.11
26436;BME280;15351;52.408;16.826;2023-05-27T04:16:29;102007.48;;;12.19;66.25
26436;BME280;15351;52.408;16.826;2023-05-27T04:19:09;102005.41;;;12.20;66.31
26436;BME280;15351;52.408;16.826;2023-05-27T04:21:43;102010.97;;;12.25;66.47
26436;BME280;15351;52.408;16.826;2023-05-27T04:24:10;102014.34;;;12.30;66.55
26436;BME280;15351;52.408;16.826;2023-05-27T04:26:48;102013.73;;;12.34;66.44
26436;BME280;15351;52.408;16.826;2023-05-27T04:29:35;102011.55;;;12.37;66.42
26436;BME280;15351;52.408;16.826;2023-05-27T04:32:01;102012.02;;;12.43;66.69
26436;BME280;15351;52.408;16.826;2023-05-27T04:34:28;102014.70;;;12.49;66.97
26436;BME280;15351;52.408;16.826;2023-05-27T04:37:05;102012.11;;;12.54;66.91
26436;BME280;15351;52.408;16.826;2023-05-27T04:39:35;102013.20;;;12.59;66.97
26436;BME280;15351;52.408;16.826;2023-05-27T04:42:12;102015.75;;;12.65;67.17
26436;BME280;15351;52.408;16.826;2023-05-27T04:44:45;102018.63;;;12.73;67.33
26436;BME280;15351;52.408;16.826;2023-05-27T04:47:15;102022.34;;;12.79;67.29
26436;BME280;15351;52.408;16.826;2023-05-27T04:50:36;102013.96;;;12.83;66.99
26436;BME280;15351;52.408;16.826;2023-05-27T04:53:42;102014.96;;;12.89;66.89
26436;BME280;15351;52.408;16.826;2023-05-27T04:56:45;102015.60;;;12.97;67.24
26436;BME280;15351;52.408;16.826;2023-05-27T05:00:17;102013.29;;;13.02;67.19
26436;BME280;15351;52.408;16.826;2023-05-27T05:03:48;102015.79;;;13.09;67.10
26436;BME280;15351;52.408;16.826;2023-05-27T05:14:25;102013.26;;;13.39;67.10
26436;BME280;15351;52.408;16.826;2023-05-27T05:17:19;102019.25;;;13.47;67.03
26436;BME280;15351;52.408;16.826;2023-05-27T05:21:08;102013.09;;;13.55;67.17
26436;BME280;15351;52.408;16.826;2023-05-27T05:24:32;102007.23;;;13.64;67.11
26436;BME280;15351;52.408;16.826;2023-05-27T05:30:44;102010.98;;;13.84;66.97
26436;BME280;15351;52.408;16.826;2023-05-27T05:33:47;102006.71;;;13.93;66.84
26436;BME280;15351;52.408;16.826;2023-05-27T05:36:33;102008.44;;;14.04;66.72
26436;BME280;15351;52.408;16.826;2023-05-27T05:42:14;102004.39;;;14.23;66.46
26436;BME280;15351;52.408;16.826;2023-05-27T05:45:35;102005.10;;;14.32;66.30
26436;BME280;15351;52.408;16.826;2023-05-27T05:48:06;102010.73;;;14.44;66.28
26436;BME280;15351;52.408;16.826;2023-05-27T05:54:29;102020.00;;;14.64;65.47
26436;BME280;15351;52.408;16.826;2023-05-27T05:57:23;102022.21;;;14.70;65.02
26436;BME280;15351;52.408;16.826;2023-05-27T06:00:15;102019.23;;;14.72;64.78
26436;BME280;15351;52.408;16.826;2023-05-27T06:03:54;102026.77;;;14.78;64.66
26436;BME280;15351;52.408;16.826;2023-05-27T06:07:44;102019.16;;;14.81;64.72
26436;BME280;15351;52.408;16.826;2023-05-27T06:10:38;102022.69;;;14.95;63.85
26436;BME280;15351;52.408;16.826;2023-05-27T06:14:08;102024.70;;;15.03;62.94
26436;BME280;15351;52.408;16.826;2023-05-27T06:17:29;102026.51;;;15.11;61.65
26436;BME280;15351;52.408;16.826;2023-05-27T06:20:54;102027.27;;;15.19;61.30
26436;BME280;15351;52.408;16.826;2023-05-27T06:23:24;102024.47;;;15.23;61.49
26436;BME280;15351;52.408;16.826;2023-05-27T06:26:38;102029.08;;;15.32;61.59
26436;BME280;15351;52.408;16.826;2023-05-27T06:29:08;102035.33;;;15.37;61.21
26436;BME280;15351;52.408;16.826;2023-05-27T06:31:46;102037.12;;;15.44;60.71
26436;BME280;15351;52.408;16.826;2023-05-27T06:34:28;102037.75;;;15.50;60.59
26436;BME280;15351;52.408;16.826;2023-05-27T06:37:46;102031.27;;;15.56;60.38
26436;BME280;15351;52.408;16.826;2023-05-27T06:44:03;102036.62;;;15.73;59.14
26436;BME280;15351;52.408;16.826;2023-05-27T06:47:17;102037.98;;;15.84;57.85
26436;BME280;15351;52.408;16.826;2023-05-27T06:50:08;102040.33;;;15.93;57.22
26436;BME280;15351;52.408;16.826;2023-05-27T06:52:53;102041.72;;;16.04;57.45
26436;BME280;15351;52.408;16.826;2023-05-27T06:56:02;102036.61;;;16.16;57.18
26436;BME280;15351;52.408;16.826;2023-05-27T06:58:56;102031.16;;;16.26;56.59
26436;BME280;15351;52.408;16.826;2023-05-27T07:01:25;102040.11;;;16.39;56.60
26436;BME280;15351;52.408;16.826;2023-05-27T07:04:58;102038.32;;;16.51;55.46
26436;BME280;15351;52.408;16.826;2023-05-27T07:07:57;102032.52;;;16.67;55.30
26436;BME280;15351;52.408;16.826;2023-05-27T07:10:28;102037.23;;;16.81;54.76
26436;BME280;15351;52.408;16.826;2023-05-27T07:12:57;102032.16;;;16.95;54.57
26436;BME280;15351;52.408;16.826;2023-05-27T07:15:32;102029.52;;;17.08;54.64
26436;BME280;15351;52.408;16.826;2023-05-27T07:18:05;102027.58;;;17.16;54.19
26436;BME280;15351;52.408;16.826;2023-05-27T07:20:33;102025.09;;;17.29;54.74
26436;BME280;15351;52.408;16.826;2023-05-27T07:23:07;102024.25;;;17.44;54.43
26436;BME280;15351;52.408;16.826;2023-05-27T07:26:01;102017.35;;;17.58;53.96
26436;BME280;15351;52.408;16.826;2023-05-27T07:28:28;102017.22;;;17.71;54.28
26436;BME280;15351;52.408;16.826;2023-05-27T07:31:20;102018.82;;;17.86;53.99
26436;BME280;15351;52.408;16.826;2023-05-27T07:34:12;102013.52;;;17.96;52.87
26436;BME280;15351;52.408;16.826;2023-05-27T07:36:38;102016.63;;;18.02;51.66
26436;BME280;15351;52.408;16.826;2023-05-27T07:39:12;102010.45;;;18.11;50.67
26436;BME280;15351;52.408;16.826;2023-05-27T07:42:16;102009.77;;;18.22;51.16
26436;BME280;15351;52.408;16.826;2023-05-27T07:44:53;102008.88;;;18.38;51.24
26436;BME280;15351;52.408;16.826;2023-05-27T07:47:34;102000.58;;;18.47;51.19
26436;BME280;15351;52.408;16.826;2023-05-27T07:50:17;102006.06;;;18.60;51.36
26436;BME280;15351;52.408;16.826;2023-05-27T07:53:06;102007.14;;;18.70;50.90
26436;BME280;15351;52.408;16.826;2023-05-27T07:55:47;102002.95;;;18.81;51.22
26436;BME280;15351;52.408;16.826;2023-05-27T07:58:30;102005.05;;;18.92;50.83
26436;BME280;15351;52.408;16.826;2023-05-27T08:01:20;102000.98;;;19.06;50.90
26436;BME280;15351;52.408;16.826;2023-05-27T08:04:07;101999.70;;;19.18;50.32
26436;BME280;15351;52.408;16.826;2023-05-27T08:10:38;101995.33;;;19.35;48.05
26436;BME280;15351;52.408;16.826;2023-05-27T08:17:22;101985.81;;;19.65;46.42
26436;BME280;15351;52.408;16.826;2023-05-27T08:20:47;101982.71;;;19.73;45.16
26436;BME280;15351;52.408;16.826;2023-05-27T08:23:37;101975.60;;;19.82;44.06
26436;BME280;15351;52.408;16.826;2023-05-27T08:26:53;101977.49;;;19.97;45.06
26436;BME280;15351;52.408;16.826;2023-05-27T08:30:36;101970.24;;;20.16;45.86
26436;BME280;15351;52.408;16.826;2023-05-27T08:33:12;101970.17;;;20.24;45.32
26436;BME280;15351;52.408;16.826;2023-05-27T08:36:03;101962.27;;;20.34;45.33
26436;BME280;15351;52.408;16.826;2023-05-27T08:38:48;101964.84;;;20.39;44.66
26436;BME280;15351;52.408;16.826;2023-05-27T08:41:32;101959.17;;;20.51;45.03
26436;BME280;15351;52.408;16.826;2023-05-27T08:44:17;101957.02;;;20.64;45.27
26436;BME280;15351;52.408;16.826;2023-05-27T08:46:52;101954.20;;;20.74;44.06
26436;BME280;15351;52.408;16.826;2023-05-27T08:49:25;101952.59;;;20.76;42.97
26436;BME280;15351;52.408;16.826;2023-05-27T08:52:03;101947.98;;;20.80;42.53
26436;BME280;15351;52.408;16.826;2023-05-27T08:55:16;101953.05;;;20.89;43.09
26436;BME280;15351;52.408;16.826;2023-05-27T08:58:16;101955.05;;;21.04;42.56
26436;BME280;15351;52.408;16.826;2023-05-27T09:00:58;101950.29;;;21.15;42.17
26436;BME280;15351;52.408;16.826;2023-05-27T09:06:53;101942.70;;;21.18;39.54
26436;BME280;15351;52.408;16.826;2023-05-27T09:10:04;101949.80;;;21.27;41.11
26436;BME280;15351;52.408;16.826;2023-05-27T09:12:52;101950.58;;;21.46;41.43
26436;BME280;15351;52.408;16.826;2023-05-27T09:15:37;101945.39;;;21.55;40.24
26436;BME280;15351;52.408;16.826;2023-05-27T09:18:53;101944.23;;;21.61;39.54
26436;BME280;15351;52.408;16.826;2023-05-27T09:22:06;101948.45;;;21.73;40.25
26436;BME280;15351;52.408;16.826;2023-05-27T09:24:45;101946.66;;;21.90;39.59
26436;BME280;15351;52.408;16.826;2023-05-27T09:27:51;101943.98;;;22.02;38.97
26436;BME280;15351;52.408;16.826;2023-05-27T09:30:50;101945.73;;;22.18;38.21
26436;BME280;15351;52.408;16.826;2023-05-27T09:33:47;101940.41;;;22.27;37.81
26436;BME280;15351;52.408;16.826;2023-05-27T09:36:47;101936.54;;;22.28;36.70
26436;BME280;15351;52.408;16.826;2023-05-27T09:39:26;101945.51;;;22.34;36.36
26436;BME280;15351;52.408;16.826;2023-05-27T09:42:06;101942.71;;;22.33;36.54
26436;BME280;15351;52.408;16.826;2023-05-27T09:44:58;101949.05;;;22.45;36.77
26436;BME280;15351;52.408;16.826;2023-05-27T09:47:45;101942.43;;;22.54;36.36
26436;BME280;15351;52.408;16.826;2023-05-27T09:54:05;101942.15;;;22.70;36.58
26436;BME280;15351;52.408;16.826;2023-05-27T09:57:03;101937.48;;;22.88;37.45
26436;BME280;15351;52.408;16.826;2023-05-27T09:59:41;101936.30;;;23.05;37.01
26436;BME280;15351;52.408;16.826;2023-05-27T10:02:22;101934.56;;;23.15;36.53
26436;BME280;15351;52.408;16.826;2023-05-27T10:05:37;101933.44;;;23.19;35.81
26436;BME280;15351;52.408;16.826;2023-05-27T10:08:03;101934.91;;;23.26;36.36
26436;BME280;15351;52.408;16.826;2023-05-27T10:10:33;101935.82;;;23.24;35.18
26436;BME280;15351;52.408;16.826;2023-05-27T10:13:07;101933.42;;;23.29;36.75
26436;BME280;15351;52.408;16.826;2023-05-27T10:15:37;101933.72;;;23.39;36.83
26436;BME280;15351;52.408;16.826;2023-05-27T10:18:07;101934.50;;;23.34;35.82
26436;BME280;15351;52.408;16.826;2023-05-27T10:20:38;101928.52;;;23.32;36.03
26436;BME280;15351;52.408;16.826;2023-05-27T10:23:19;101931.04;;;23.41;36.61
26436;BME280;15351;52.408;16.826;2023-05-27T10:25:51;101927.76;;;23.52;36.24
26436;BME280;15351;52.408;16.826;2023-05-27T10:28:40;101926.02;;;23.61;36.13
26436;BME280;15351;52.408;16.826;2023-05-27T10:31:16;101922.77;;;23.68;36.21
26436;BME280;15351;52.408;16.826;2023-05-27T10:34:03;101919.31;;;23.73;36.81
26436;BME280;15351;52.408;16.826;2023-05-27T10:36:33;101919.00;;;23.75;35.52
26436;BME280;15351;52.408;16.826;2023-05-27T10:39:03;101919.37;;;23.78;35.27
26436;BME280;15351;52.408;16.826;2023-05-27T10:42:22;101923.37;;;23.87;35.58
26436;BME280;15351;52.408;16.826;2023-05-27T10:45:13;101915.27;;;23.90;35.05
26436;BME280;15351;52.408;16.826;2023-05-27T10:48:31;101909.91;;;23.93;35.38
26436;BME280;15351;52.408;16.826;2023-05-27T10:50:53;101911.40;;;24.02;35.47
26436;BME280;15351;52.408;16.826;2023-05-27T10:53:38;101909.03;;;24.09;35.42
26436;BME280;15351;52.408;16.826;2023-05-27T10:56:10;101905.01;;;24.13;35.47
26436;BME280;15351;52.408;16.826;2023-05-27T10:58:57;101905.80;;;24.14;35.45
26436;BME280;15351;52.408;16.826;2023-05-27T11:01:39;101903.89;;;24.14;34.89
26436;BME280;15351;52.408;16.826;2023-05-27T11:04:06;101904.14;;;24.15;34.38
26436;BME280;15351;52.408;16.826;2023-05-27T11:06:41;101902.62;;;24.14;34.32
26436;BME280;15351;52.408;16.826;2023-05-27T11:09:07;101900.47;;;24.13;33.77
26436;BME280;15351;52.408;16.826;2023-05-27T11:11:48;101903.20;;;24.15;34.25
26436;BME280;15351;52.408;16.826;2023-05-27T11:14:15;101892.20;;;24.20;34.38
26436;BME280;15351;52.408;16.826;2023-05-27T11:16:52;101891.86;;;24.23;34.41
26436;BME280;15351;52.408;16.826;2023-05-27T11:19:20;101883.44;;;24.25;34.07
26436;BME280;15351;52.408;16.826;2023-05-27T11:21:58;101878.23;;;24.32;35.38
26436;BME280;15351;52.408;16.826;2023-05-27T11:24:29;101878.12;;;24.37;35.33
26436;BME280;15351;52.408;16.826;2023-05-27T11:27:23;101883.23;;;24.36;34.39
26436;BME280;15351;52.408;16.826;2023-05-27T11:29:53;101883.81;;;24.34;33.97
26436;BME280;15351;52.408;16.826;2023-05-27T11:32:45;101883.17;;;24.31;33.38
26436;BME280;15351;52.408;16.826;2023-05-27T11:35:42;101879.41;;;24.24;32.93
26436;BME280;15351;52.408;16.826;2023-05-27T11:38:57;101876.27;;;24.17;33.55
26436;BME280;15351;52.408;16.826;2023-05-27T11:41:33;101874.36;;;24.20;34.31
26436;BME280;15351;52.408;16.826;2023-05-27T11:48:04;101863.09;;;24.17;33.62
26436;BME280;15351;52.408;16.826;2023-05-27T11:50:38;101865.42;;;24.18;34.38
26436;BME280;15351;52.408;16.826;2023-05-27T12:00:12;101853.73;;;24.20;33.75
26436;BME280;15351;52.408;16.826;2023-05-27T12:02:43;101858.48;;;24.20;33.89
26436;BME280;15351;52.408;16.826;2023-05-27T12:05:21;101858.71;;;24.27;34.81
26436;BME280;15351;52.408;16.826;2023-05-27T12:07:48;101852.25;;;24.32;33.89
26436;BME280;15351;52.408;16.826;2023-05-27T12:10:16;101845.48;;;24.29;33.66
26436;BME280;15351;52.408;16.826;2023-05-27T12:12:43;101845.83;;;24.25;33.37
26436;BME280;15351;52.408;16.826;2023-05-27T12:15:16;101839.36;;;24.06;32.60
26436;BME280;15351;52.408;16.826;2023-05-27T12:17:43;101834.80;;;24.02;31.94
26436;BME280;15351;52.408;16.826;2023-05-27T12:20:13;101824.66;;;23.94;32.47
26436;BME280;15351;52.408;16.826;2023-05-27T12:22:43;101820.20;;;23.92;32.56
26436;BME280;15351;52.408;16.826;2023-05-27T12:25:22;101827.40;;;23.95;34.28
26436;BME280;15351;52.408;16.826;2023-05-27T12:27:48;101828.45;;;24.00;34.47
26436;BME280;15351;52.408;16.826;2023-05-27T12:30:17;101828.30;;;24.02;33.54
26436;BME280;15351;52.408;16.826;2023-05-27T12:32:53;101826.92;;;24.01;33.92
26436;BME280;15351;52.408;16.826;2023-05-27T12:35:26;101825.52;;;23.97;33.83
26436;BME280;15351;52.408;16.826;2023-05-27T12:38:02;101824.39;;;23.93;33.45
26436;BME280;15351;52.408;16.826;2023-05-27T12:40:43;101816.42;;;23.92;33.75
26436;BME280;15351;52.408;16.826;2023-05-27T12:43:11;101813.26;;;23.84;32.87
26436;BME280;15351;52.408;16.826;2023-05-27T12:45:47;101815.95;;;23.76;32.80
26436;BME280;15351;52.408;16.826;2023-05-27T12:48:17;101814.78;;;23.74;33.20
26436;BME280;15351;52.408;16.826;2023-05-27T12:50:47;101806.61;;;23.72;33.23
26436;BME280;15351;52.408;16.826;2023-05-27T12:53:36;101803.48;;;23.71;32.87
26436;BME280;15351;52.408;16.826;2023-05-27T12:56:06;101806.27;;;23.65;33.53
26436;BME280;15351;52.408;16.826;2023-05-27T12:58:36;101804.18;;;23.61;33.04
26436;BME280;15351;52.408;16.826;2023-05-27T13:01:02;101807.06;;;23.57;33.21
26436;BME280;15351;52.408;16.826;2023-05-27T13:03:28;101802.73;;;23.57;32.87
26436;BME280;15351;52.408;16.826;2023-05-27T13:05:56;101795.98;;;23.55;32.70
26436;BME280;15351;52.408;16.826;2023-05-27T13:08:28;101794.19;;;23.51;32.50
26436;BME280;15351;52.408;16.826;2023-05-27T13:10:57;101799.69;;;23.48;32.83
26436;BME280;15351;52.408;16.826;2023-05-27T13:13:29;101795.64;;;23.44;32.42
26436;BME280;15351;52.408;16.826;2023-05-27T13:16:00;101797.33;;;23.40;32.30
26436;BME280;15351;52.408;16.826;2023-05-27T13:18:34;101794.98;;;23.38;32.97
26436;BME280;15351;52.408;16.826;2023-05-27T13:21:02;101793.30;;;23.35;32.49
26436;BME280;15351;52.408;16.826;2023-05-27T13:23:43;101780.13;;;23.19;31.31
26436;BME280;15351;52.408;16.826;2023-05-27T13:26:17;101779.83;;;23.13;32.11
26436;BME280;15351;52.408;16.826;2023-05-27T13:28:52;101774.81;;;23.15;32.69
26436;BME280;15351;52.408;16.826;2023-05-27T13:31:35;101774.62;;;23.16;32.57
26436;BME280;15351;52.408;16.826;2023-05-27T13:34:02;101768.09;;;23.16;32.51
26436;BME280;15351;52.408;16.826;2023-05-27T13:40:25;101764.75;;;23.14;33.29
26436;BME280;15351;52.408;16.826;2023-05-27T13:43:45;101769.79;;;23.08;32.26
26436;BME280;15351;52.408;16.826;2023-05-27T13:46:31;101772.27;;;23.06;32.92
26436;BME280;15351;52.408;16.826;2023-05-27T13:49:06;101769.71;;;23.07;32.91
26436;BME280;15351;52.408;16.826;2023-05-27T13:51:45;101765.69;;;23.07;32.35
26436;BME280;15351;52.408;16.826;2023-05-27T13:54:15;101762.31;;;23.07;32.12
26436;BME280;15351;52.408;16.826;2023-05-27T13:56:59;101753.35;;;23.04;32.03
26436;BME280;15351;52.408;16.826;2023-05-27T13:59:38;101750.80;;;22.98;31.82
26436;BME280;15351;52.408;16.826;2023-05-27T14:02:05;101750.20;;;22.88;31.63
26436;BME280;15351;52.408;16.826;2023-05-27T14:04:38;101746.84;;;22.82;31.61
26436;BME280;15351;52.408;16.826;2023-05-27T14:07:11;101749.15;;;22.75;31.78
26436;BME280;15351;52.408;16.826;2023-05-27T14:09:38;101747.32;;;22.70;32.22
26436;BME280;15351;52.408;16.826;2023-05-27T14:12:25;101745.88;;;22.66;31.72
26436;BME280;15351;52.408;16.826;2023-05-27T14:15:06;101739.71;;;22.56;30.94
26436;BME280;15351;52.408;16.826;2023-05-27T14:18:24;101737.73;;;22.51;31.11
26436;BME280;15351;52.408;16.826;2023-05-27T14:21:05;101739.92;;;22.52;31.04
26436;BME280;15351;52.408;16.826;2023-05-27T14:23:41;101737.11;;;22.50;30.78
26436;BME280;15351;52.408;16.826;2023-05-27T14:26:17;101736.22;;;22.43;30.77
26436;BME280;15351;52.408;16.826;2023-05-27T14:29:11;101734.43;;;22.38;30.42
26436;BME280;15351;52.408;16.826;2023-05-27T14:31:57;101732.37;;;22.34;30.58
26436;BME280;15351;52.408;16.826;2023-05-27T14:34:23;101728.70;;;22.33;30.41
26436;BME280;15351;52.408;16.826;2023-05-27T14:36:51;101730.43;;;22.32;30.75
26436;BME280;15351;52.408;16.826;2023-05-27T14:39:20;101722.41;;;22.28;30.65
26436;BME280;15351;52.408;16.826;2023-05-27T14:41:59;101718.23;;;22.26;31.04
26436;BME280;15351;52.408;16.826;2023-05-27T14:45:01;101717.45;;;22.20;30.39
26436;BME280;15351;52.408;16.826;2023-05-27T14:48:29;101716.84;;;22.08;30.40